Time;durP1;ratioP1;P1;durP2;ratioP2;P2;SDS_P1;SDS_P2;PMS_P1;PMS_P2;Temp;Humidity;BMP_temperature;BMP_pressure;BME280_temperature;BME280_humidity;BME280_pressure;Samples;Min_cycle;Max_cycle;Signal;HPM_P1;HPM_P2
2022/03/15 00:00:20;;;;;;;;;;;8.40;72.20;;;;;;5078430;28;20394;-82
2022/03/15 00:02:46;;;;;;;;;;;8.40;72.10;;;;;;5078000;28;19930;-83
2022/03/15 00:05:12;;;;;;;;;;;8.30;72.00;;;;;;5078217;28;20428;-82
2022/03/15 00:07:37;;;;;;;;;;;8.30;72.10;;;;;;5060438;28;19913;-83
2022/03/15 00:10:04;;;;;;;;;;;8.30;72.00;;;;;;5077511;28;19951;-82
2022/03/15 00:12:30;;;;;;;;;;;8.30;72.10;;;;;;5076286;28;20389;-82
2022/03/15 00:14:56;;;;;;;;;;;8.30;72.10;;;;;;5076813;28;19912;-82
2022/03/15 00:17:23;;;;;;;;;;;8.30;72.30;;;;;;5077992;28;19912;-83
2022/03/15 00:19:49;;;;;;;;;;;8.30;72.50;;;;;;5060167;28;19908;-83
2022/03/15 00:22:14;;;;;;;;;;;8.30;72.60;;;;;;5078060;28;19909;-82
2022/03/15 00:24:41;;;;;;;;;;;8.30;72.80;;;;;;5060033;28;19904;-82
2022/03/15 00:27:06;;;;;;;;;;;8.20;72.60;;;;;;5078297;28;19908;-82
2022/03/15 00:29:32;;;;;;;;;;;8.20;72.70;;;;;;5076348;28;19915;-82
2022/03/15 00:31:58;;;;;;;;;;;8.20;72.60;;;;;;5077561;28;19908;-82
2022/03/15 00:34:24;;;;;;;;;;;8.20;72.50;;;;;;5077438;28;19908;-82
2022/03/15 00:36:49;;;;;;;;;;;8.20;72.70;;;;;;5059820;28;20443;-82
2022/03/15 00:39:16;;;;;;;;;;;8.20;72.80;;;;;;5077081;28;19995;-82
2022/03/15 00:41:42;;;;;;;;;;;8.20;72.80;;;;;;5070584;28;20003;-82
2022/03/15 00:44:08;;;;;;;;;;;8.20;72.60;;;;;;5087523;28;19997;-82
2022/03/15 00:46:33;;;;;;;;;;;8.20;72.70;;;;;;5077913;28;19931;-82
2022/03/15 00:48:59;;;;;;;;;;;8.20;72.60;;;;;;5059757;28;19932;-82
2022/03/15 00:51:25;;;;;;;;;;;8.20;72.70;;;;;;5078045;28;19909;-82
2022/03/15 00:53:50;;;;;;;;;;;8.20;72.70;;;;;;5076769;28;19916;-81
2022/03/15 00:56:16;;;;;;;;;;;8.20;72.70;;;;;;5077904;28;20391;-81
2022/03/15 00:58:42;;;;;;;;;;;8.20;72.80;;;;;;5077718;28;19909;-82
2022/03/15 01:01:08;;;;;;;;;;;8.20;72.90;;;;;;5077876;28;19916;-82
2022/03/15 01:03:33;;;;;;;;;;;8.20;72.80;;;;;;5077295;28;20391;-82
2022/03/15 01:05:59;;;;;;;;;;;8.20;72.90;;;;;;5077769;28;19917;-81
2022/03/15 01:08:24;;;;;;;;;;;8.20;72.80;;;;;;5059629;28;19999;-81
2022/03/15 01:10:51;;;;;;;;;;;8.20;73.00;;;;;;5077616;28;19909;-82
2022/03/15 01:13:17;;;;;;;;;;;8.20;73.10;;;;;;5077471;28;19962;-82
2022/03/15 01:15:44;;;;;;;;;;;8.20;73.00;;;;;;5077578;28;20290;-82
2022/03/15 01:18:10;;;;;;;;;;;8.30;73.50;;;;;;5077386;28;20372;-82
2022/03/15 01:20:38;;;;;;;;;;;8.30;74.00;;;;;;5077816;28;19908;-82
2022/03/15 01:23:04;;;;;;;;;;;8.40;74.20;;;;;;5077511;28;19909;-82
2022/03/15 01:25:30;;;;;;;;;;;8.40;74.40;;;;;;5077817;28;19916;-82
2022/03/15 01:27:56;;;;;;;;;;;8.50;74.00;;;;;;5077422;28;20363;-82
2022/03/15 01:30:22;;;;;;;;;;;8.50;73.40;;;;;;5077507;28;19909;-82
2022/03/15 01:32:48;;;;;;;;;;;8.50;73.20;;;;;;5077075;28;19916;-82
2022/03/15 01:35:14;;;;;;;;;;;8.50;73.40;;;;;;5077392;28;20291;-82
2022/03/15 01:37:39;;;;;;;;;;;8.50;73.80;;;;;;5077445;28;19915;-82
2022/03/15 01:40:05;;;;;;;;;;;8.60;73.80;;;;;;5076353;28;19908;-82
2022/03/15 01:42:31;;;;;;;;;;;8.60;73.70;;;;;;5045900;28;19913;-82
2022/03/15 01:44:56;;;;;;;;;;;8.60;74.20;;;;;;5077600;28;19916;-82
2022/03/15 01:47:22;;;;;;;;;;;8.70;74.30;;;;;;5076848;28;20007;-82
2022/03/15 01:49:48;;;;;;;;;;;8.70;74.00;;;;;;5077268;28;19995;-82
2022/03/15 01:52:15;;;;;;;;;;;8.70;73.90;;;;;;5077298;28;19915;-82
2022/03/15 01:54:41;;;;;;;;;;;8.70;73.70;;;;;;5077371;28;19958;-82
2022/03/15 01:57:10;;;;;;;;;;;8.70;73.50;;;;;;5077115;28;19956;-82
2022/03/15 01:59:36;;;;;;;;;;;8.70;73.30;;;;;;5059214;28;20359;-81
2022/03/15 02:02:03;;;;;;;;;;;8.70;73.90;;;;;;5077003;28;19962;-82
2022/03/15 02:04:29;;;;;;;;;;;8.70;74.00;;;;;;5076549;28;19909;-81
2022/03/15 02:07:13;;;;;;;;;;;8.80;73.80;;;;;;5062411;28;20301;-82
2022/03/15 02:09:40;;;;;;;;;;;8.80;74.10;;;;;;5080632;28;19908;-82
2022/03/15 02:12:06;;;;;;;;;;;8.80;74.30;;;;;;5062534;28;19976;-82
2022/03/15 02:14:32;;;;;;;;;;;8.80;74.40;;;;;;5062570;28;19973;-82
2022/03/15 02:16:57;;;;;;;;;;;8.80;74.30;;;;;;5080404;28;20015;-82
2022/03/15 02:19:23;;;;;;;;;;;8.80;74.10;;;;;;5080571;28;19990;-82
2022/03/15 02:21:49;;;;;;;;;;;8.80;73.80;;;;;;5080476;28;20363;-82
2022/03/15 02:24:15;;;;;;;;;;;8.80;74.10;;;;;;5080418;28;19916;-82
2022/03/15 02:26:41;;;;;;;;;;;8.80;74.30;;;;;;5080379;28;20462;-82
2022/03/15 02:29:07;;;;;;;;;;;8.80;74.40;;;;;;5080649;28;19908;-81
2022/03/15 02:31:33;;;;;;;;;;;8.80;74.30;;;;;;5080338;28;19909;-81
2022/03/15 02:33:59;;;;;;;;;;;8.80;74.00;;;;;;5079910;28;19958;-81
2022/03/15 02:36:24;;;;;;;;;;;8.80;74.00;;;;;;5080101;28;19916;-81
2022/03/15 02:38:50;;;;;;;;;;;8.80;74.20;;;;;;5080242;28;19913;-81
2022/03/15 02:41:16;;;;;;;;;;;8.90;73.80;;;;;;5057904;28;19909;-81
2022/03/15 02:43:42;;;;;;;;;;;8.80;73.80;;;;;;5052700;28;20451;-81
2022/03/15 02:46:08;;;;;;;;;;;8.90;73.80;;;;;;5058662;28;19921;-82
2022/03/15 02:48:34;;;;;;;;;;;8.90;73.90;;;;;;5059776;28;19909;-82
2022/03/15 02:51:06;;;;;;;;;;;8.90;74.10;;;;;;5059922;28;19909;-82
2022/03/15 02:53:32;;;;;;;;;;;8.90;75.00;;;;;;5059931;28;19909;-82
2022/03/15 02:55:58;;;;;;;;;;;8.90;74.40;;;;;;5059607;28;19976;-81
2022/03/15 02:58:24;;;;;;;;;;;8.90;74.60;;;;;;5060061;28;20443;-81
2022/03/15 03:00:49;;;;;;;;;;;8.90;74.80;;;;;;5059662;28;19944;-82
2022/03/15 03:03:15;;;;;;;;;;;8.90;74.60;;;;;;5058343;28;19913;-82
2022/03/15 03:05:41;;;;;;;;;;;8.90;74.70;;;;;;5059883;28;20494;-82
2022/03/15 03:08:06;;;;;;;;;;;8.90;74.80;;;;;;5059812;28;20441;-82
2022/03/15 03:10:32;;;;;;;;;;;8.90;74.70;;;;;;5059433;28;19909;-82
2022/03/15 03:12:59;;;;;;;;;;;8.90;74.50;;;;;;5059664;28;19916;-82
2022/03/15 03:15:24;;;;;;;;;;;9.00;74.70;;;;;;5059343;28;19913;-82
2022/03/15 03:17:50;;;;;;;;;;;8.90;74.50;;;;;;5058671;28;20386;-82
2022/03/15 03:20:24;;;;;;;;;;;8.90;74.70;;;;;;5057976;28;19931;-82
2022/03/15 03:22:50;;;;;;;;;;;8.90;74.70;;;;;;5059567;28;20320;-82
2022/03/15 03:25:16;;;;;;;;;;;8.90;74.80;;;;;;5059189;28;19908;-82
2022/03/15 03:27:42;;;;;;;;;;;8.90;74.70;;;;;;5057937;28;19913;-82
2022/03/15 03:30:08;;;;;;;;;;;8.90;75.20;;;;;;5059267;28;20000;-81
2022/03/15 03:32:34;;;;;;;;;;;8.90;75.30;;;;;;5058817;28;19909;-82
2022/03/15 03:35:04;;;;;;;;;;;8.90;75.50;;;;;;5059066;28;20332;-82
2022/03/15 03:37:31;;;;;;;;;;;8.90;75.80;;;;;;5058973;28;19916;-82
2022/03/15 03:39:56;;;;;;;;;;;8.90;75.80;;;;;;5058869;28;19920;-82
2022/03/15 03:42:22;;;;;;;;;;;8.90;76.00;;;;;;5045833;28;20288;-82
2022/03/15 03:44:48;;;;;;;;;;;8.90;75.90;;;;;;5058733;28;20012;-82
2022/03/15 03:47:13;;;;;;;;;;;8.90;76.00;;;;;;5075651;28;19960;-82
2022/03/15 03:49:40;;;;;;;;;;;9.00;76.00;;;;;;5060829;28;19908;-82
2022/03/15 03:52:06;;;;;;;;;;;9.00;76.00;;;;;;5078904;28;20368;-82
2022/03/15 03:54:32;;;;;;;;;;;9.00;76.00;;;;;;5078747;28;19966;-82
2022/03/15 03:56:58;;;;;;;;;;;9.00;75.80;;;;;;5078722;28;19985;-82
2022/03/15 03:59:23;;;;;;;;;;;9.00;75.80;;;;;;5060739;28;19912;-82
2022/03/15 04:01:49;;;;;;;;;;;9.00;75.60;;;;;;5078593;28;20003;-82
2022/03/15 04:04:15;;;;;;;;;;;9.10;76.00;;;;;;5078226;28;19916;-82
2022/03/15 04:06:41;;;;;;;;;;;9.00;75.70;;;;;;5078597;28;19909;-82
2022/03/15 04:09:09;;;;;;;;;;;9.10;75.60;;;;;;5078463;28;20026;-82
2022/03/15 04:11:34;;;;;;;;;;;9.10;75.70;;;;;;5078502;28;19913;-82
2022/03/15 04:14:00;;;;;;;;;;;9.10;75.90;;;;;;5078131;28;19973;-83
2022/03/15 04:16:26;;;;;;;;;;;9.10;75.90;;;;;;5078325;28;19912;-83
2022/03/15 04:18:52;;;;;;;;;;;9.10;75.70;;;;;;5078177;28;20298;-82
2022/03/15 04:21:18;;;;;;;;;;;9.10;75.50;;;;;;5078364;28;19908;-83
2022/03/15 04:23:45;;;;;;;;;;;9.10;75.40;;;;;;5078261;28;19958;-83
2022/03/15 04:26:10;;;;;;;;;;;9.10;75.40;;;;;;5078136;28;20275;-83
2022/03/15 04:28:36;;;;;;;;;;;9.10;75.40;;;;;;5077651;28;19909;-83
2022/03/15 04:31:03;;;;;;;;;;;9.10;75.50;;;;;;5078098;28;20001;-83
2022/03/15 04:33:28;;;;;;;;;;;9.20;75.70;;;;;;5077728;28;20367;-83
2022/03/15 04:35:54;;;;;;;;;;;9.20;75.90;;;;;;5077826;28;19918;-83
2022/03/15 04:38:19;;;;;;;;;;;9.10;76.00;;;;;;5060126;28;19909;-83
2022/03/15 04:40:45;;;;;;;;;;;9.10;76.00;;;;;;5077661;28;19908;-83
2022/03/15 04:43:11;;;;;;;;;;;9.10;76.30;;;;;;5064547;28;19958;-82
2022/03/15 04:45:37;;;;;;;;;;;9.20;76.40;;;;;;5059808;28;20375;-83
2022/03/15 04:48:03;;;;;;;;;;;9.10;76.40;;;;;;5064429;28;20121;-83
2022/03/15 04:50:30;;;;;;;;;;;9.20;76.60;;;;;;5078011;28;19915;-83
2022/03/15 04:52:55;;;;;;;;;;;9.10;76.70;;;;;;5059874;28;19913;-83
2022/03/15 04:55:21;;;;;;;;;;;9.10;76.80;;;;;;5077734;28;19924;-83
2022/03/15 04:57:47;;;;;;;;;;;9.10;76.70;;;;;;5077857;28;19954;-83
2022/03/15 05:00:12;;;;;;;;;;;9.20;76.90;;;;;;5077708;28;20383;-82
2022/03/15 05:02:43;;;;;;;;;;;9.20;77.10;;;;;;5077840;28;19909;-82
2022/03/15 05:05:09;;;;;;;;;;;9.10;77.30;;;;;;5059467;28;20387;-82
2022/03/15 05:07:35;;;;;;;;;;;9.20;77.20;;;;;;5077869;28;20283;-82
2022/03/15 05:12:45;;;;;;;;;;;9.20;77.50;;;;;;5077743;28;20058;-82
2022/03/15 05:15:11;;;;;;;;;;;9.20;78.30;;;;;;5077477;28;19970;-82
2022/03/15 05:17:37;;;;;;;;;;;9.20;78.50;;;;;;5077364;28;19908;-82
2022/03/15 05:20:05;;;;;;;;;;;9.20;78.20;;;;;;5077463;28;19916;-82
2022/03/15 05:22:31;;;;;;;;;;;9.20;78.40;;;;;;5077547;28;19912;-82
2022/03/15 05:24:57;;;;;;;;;;;9.20;78.60;;;;;;5059314;28;19908;-82
2022/03/15 05:27:23;;;;;;;;;;;9.20;79.40;;;;;;5059547;28;19915;-82
2022/03/15 05:29:49;;;;;;;;;;;9.20;80.40;;;;;;5077611;28;19909;-82
2022/03/15 05:32:14;;;;;;;;;;;9.20;81.00;;;;;;5077030;28;20020;-82
2022/03/15 05:34:40;;;;;;;;;;;9.10;80.90;;;;;;5059196;28;19957;-83
2022/03/15 05:37:08;;;;;;;;;;;9.10;80.30;;;;;;5059270;28;20059;-82
2022/03/15 05:39:34;;;;;;;;;;;9.10;80.50;;;;;;5076885;28;19908;-83
2022/03/15 05:41:59;;;;;;;;;;;9.10;80.30;;;;;;5071123;28;19908;-82
2022/03/15 05:44:26;;;;;;;;;;;9.10;80.10;;;;;;5077731;28;19909;-82
2022/03/15 05:46:52;;;;;;;;;;;9.10;80.20;;;;;;5081129;28;19924;-82
2022/03/15 05:49:17;;;;;;;;;;;9.00;80.10;;;;;;5062851;28;19914;-82
2022/03/15 05:51:43;;;;;;;;;;;9.00;80.20;;;;;;5081117;28;19916;-82
2022/03/15 05:54:09;;;;;;;;;;;9.10;81.00;;;;;;5080948;28;19918;-82
2022/03/15 05:56:35;;;;;;;;;;;9.10;81.60;;;;;;5063404;28;19920;-81
2022/03/15 05:59:00;;;;;;;;;;;9.10;82.00;;;;;;5081155;28;20371;-78
2022/03/15 06:01:26;;;;;;;;;;;9.10;82.20;;;;;;5080895;28;19909;-80
2022/03/15 06:03:53;;;;;;;;;;;9.10;82.60;;;;;;5080439;28;19920;-80
2022/03/15 06:06:20;;;;;;;;;;;9.00;83.10;;;;;;5080522;28;19908;-81
2022/03/15 06:08:45;;;;;;;;;;;9.00;83.20;;;;;;5080657;28;19909;-73
2022/03/15 06:11:12;;;;;;;;;;;9.10;83.40;;;;;;5080572;28;19919;-80
2022/03/15 06:13:38;;;;;;;;;;;9.10;82.70;;;;;;5062680;28;19912;-79
2022/03/15 06:16:04;;;;;;;;;;;9.00;82.40;;;;;;5080576;28;19962;-74
2022/03/15 06:18:29;;;;;;;;;;;9.00;82.30;;;;;;5080321;28;19936;-78
2022/03/15 06:20:55;;;;;;;;;;;9.10;82.20;;;;;;5080590;28;20334;-82
2022/03/15 06:23:24;;;;;;;;;;;9.10;82.60;;;;;;5080449;28;19908;-80
2022/03/15 06:25:49;;;;;;;;;;;9.10;82.90;;;;;;5080489;28;20013;-78
2022/03/15 06:28:15;;;;;;;;;;;9.10;83.00;;;;;;5062349;28;19908;-78
2022/03/15 06:30:41;;;;;;;;;;;9.10;83.00;;;;;;5080448;28;19908;-75
2022/03/15 06:33:07;;;;;;;;;;;9.20;83.50;;;;;;5079880;28;20009;-75
2022/03/15 06:35:33;;;;;;;;;;;9.20;83.80;;;;;;5080349;28;19920;-71
2022/03/15 06:37:59;;;;;;;;;;;9.20;83.60;;;;;;5062188;28;19909;-75
2022/03/15 06:40:26;;;;;;;;;;;9.20;83.20;;;;;;5080131;28;19909;-76
2022/03/15 06:42:52;;;;;;;;;;;9.20;83.80;;;;;;5048424;28;19909;-78
2022/03/15 06:45:18;;;;;;;;;;;9.20;84.50;;;;;;5080129;28;19913;-75
2022/03/15 06:47:44;;;;;;;;;;;9.30;84.70;;;;;;5079865;28;20291;-78
2022/03/15 06:50:12;;;;;;;;;;;9.30;85.50;;;;;;5080277;28;19908;-76
2022/03/15 06:52:39;;;;;;;;;;;9.30;84.90;;;;;;5061065;28;19908;-78
2022/03/15 06:55:05;;;;;;;;;;;9.30;85.10;;;;;;5061290;28;19958;-78
2022/03/15 06:57:31;;;;;;;;;;;9.30;85.00;;;;;;5079455;28;19909;-78
2022/03/15 06:59:59;;;;;;;;;;;9.30;85.10;;;;;;5078825;28;19962;-78
2022/03/15 07:02:25;;;;;;;;;;;9.30;85.30;;;;;;5079289;28;19908;-78
2022/03/15 07:04:51;;;;;;;;;;;9.40;85.90;;;;;;5079152;28;19909;-78
2022/03/15 07:07:17;;;;;;;;;;;9.40;86.20;;;;;;5078967;28;19912;-78
2022/03/15 07:09:42;;;;;;;;;;;9.40;86.50;;;;;;5061605;28;19908;-78
2022/03/15 07:12:08;;;;;;;;;;;9.40;86.90;;;;;;5079483;28;20294;-78
2022/03/15 07:14:34;;;;;;;;;;;9.40;87.80;;;;;;5061876;28;20367;-79
2022/03/15 07:16:59;;;;;;;;;;;9.40;87.60;;;;;;5079131;28;19922;-78
2022/03/15 07:19:27;;;;;;;;;;;9.40;87.40;;;;;;5079480;28;19912;-78
2022/03/15 07:21:53;;;;;;;;;;;9.40;88.20;;;;;;5079366;28;19938;-79
2022/03/15 07:24:18;;;;;;;;;;;9.50;89.20;;;;;;5079361;28;20321;-79
2022/03/15 07:26:44;;;;;;;;;;;9.50;88.90;;;;;;5079589;28;19913;-78
2022/03/15 07:29:10;;;;;;;;;;;9.50;89.00;;;;;;5079374;28;20434;-78
2022/03/15 07:31:35;;;;;;;;;;;9.50;88.90;;;;;;5079586;28;19980;-79
2022/03/15 07:34:01;;;;;;;;;;;9.60;88.90;;;;;;5078817;28;19983;-79
2022/03/15 07:36:26;;;;;;;;;;;9.60;89.10;;;;;;5079000;28;20264;-79
2022/03/15 07:38:52;;;;;;;;;;;9.60;89.20;;;;;;5079093;28;20345;-79
2022/03/15 07:41:21;;;;;;;;;;;9.60;89.50;;;;;;5074453;28;20398;-79
2022/03/15 07:43:47;;;;;;;;;;;9.60;89.40;;;;;;5070423;28;19909;-79
2022/03/15 07:46:13;;;;;;;;;;;9.60;89.50;;;;;;5078890;28;19966;-79
2022/03/15 07:48:38;;;;;;;;;;;9.70;89.70;;;;;;5060733;28;20394;-79
2022/03/15 07:51:04;;;;;;;;;;;9.70;90.00;;;;;;5079166;28;20424;-79
2022/03/15 07:53:29;;;;;;;;;;;9.70;90.00;;;;;;5078883;28;19916;-79
2022/03/15 07:55:56;;;;;;;;;;;9.70;89.90;;;;;;5060785;28;19912;-79
2022/03/15 07:58:22;;;;;;;;;;;9.70;89.80;;;;;;5078845;28;19909;-79
2022/03/15 08:00:48;;;;;;;;;;;9.80;89.80;;;;;;5078564;28;19914;-79
2022/03/15 08:03:14;;;;;;;;;;;9.80;90.10;;;;;;5078243;28;20358;-79
2022/03/15 08:05:40;;;;;;;;;;;9.80;89.60;;;;;;5060549;28;19915;-79
2022/03/15 08:08:06;;;;;;;;;;;9.80;89.10;;;;;;5060645;28;19931;-79
2022/03/15 08:10:32;;;;;;;;;;;9.90;89.50;;;;;;5078318;28;19919;-79
2022/03/15 08:12:58;;;;;;;;;;;9.90;89.00;;;;;;5078540;28;20387;-79
2022/03/15 08:15:23;;;;;;;;;;;9.90;88.50;;;;;;5078248;28;19912;-79
2022/03/15 08:17:49;;;;;;;;;;;10.00;88.00;;;;;;5078254;28;19915;-79
2022/03/15 08:20:18;;;;;;;;;;;10.00;87.20;;;;;;5078274;28;20325;-79
2022/03/15 08:22:44;;;;;;;;;;;10.10;86.80;;;;;;5078492;28;20008;-79
2022/03/15 08:25:10;;;;;;;;;;;10.20;86.50;;;;;;5078195;28;19940;-79
2022/03/15 08:27:35;;;;;;;;;;;10.20;86.30;;;;;;5078336;28;19909;-79
2022/03/15 08:30:01;;;;;;;;;;;10.30;86.50;;;;;;5078204;28;20438;-79
2022/03/15 08:32:27;;;;;;;;;;;10.30;86.30;;;;;;5077843;28;19912;-79
2022/03/15 08:34:52;;;;;;;;;;;10.40;86.30;;;;;;5078082;28;19915;-79
2022/03/15 08:37:18;;;;;;;;;;;10.40;85.90;;;;;;5078038;28;19920;-79
2022/03/15 08:39:43;;;;;;;;;;;10.50;85.80;;;;;;5077349;28;19915;-79
2022/03/15 08:42:09;;;;;;;;;;;10.60;86.10;;;;;;5066678;28;19954;-79
2022/03/15 08:44:35;;;;;;;;;;;10.70;86.40;;;;;;5075986;28;19957;-79
2022/03/15 08:47:01;;;;;;;;;;;10.70;86.80;;;;;;5077655;28;19959;-79
2022/03/15 08:49:26;;;;;;;;;;;10.80;86.60;;;;;;5077790;28;20098;-79
2022/03/15 08:51:52;;;;;;;;;;;10.80;86.60;;;;;;5077997;28;19912;-79
2022/03/15 08:54:18;;;;;;;;;;;10.90;87.00;;;;;;5077760;28;19908;-79
2022/03/15 08:56:45;;;;;;;;;;;10.90;86.90;;;;;;5077906;28;19912;-79
2022/03/15 08:59:15;;;;;;;;;;;11.00;86.60;;;;;;5077727;28;20321;-79
2022/03/15 09:01:41;;;;;;;;;;;11.00;86.80;;;;;;5077909;28;19916;-79
2022/03/15 09:04:07;;;;;;;;;;;11.10;87.10;;;;;;5077312;28;19908;-79
2022/03/15 09:06:32;;;;;;;;;;;11.20;87.30;;;;;;5077851;28;19908;-79
2022/03/15 09:09:01;;;;;;;;;;;11.20;87.60;;;;;;5077636;28;20375;-79
2022/03/15 09:11:31;;;;;;;;;;;11.30;87.60;;;;;;5077701;28;20352;-79
2022/03/15 09:13:57;;;;;;;;;;;11.30;87.50;;;;;;5059391;28;19919;-79
2022/03/15 09:16:23;;;;;;;;;;;11.30;87.00;;;;;;5083413;28;20298;-79
2022/03/15 09:18:48;;;;;;;;;;;11.40;87.00;;;;;;5084229;28;20011;-79
2022/03/15 09:21:14;;;;;;;;;;;11.50;87.10;;;;;;5084229;28;20740;-79
2022/03/15 09:23:40;;;;;;;;;;;11.50;87.30;;;;;;5084385;28;20260;-79
2022/03/15 09:26:06;;;;;;;;;;;11.60;87.50;;;;;;5084083;28;19916;-79
2022/03/15 09:28:33;;;;;;;;;;;11.70;87.80;;;;;;5084540;28;19913;-79
2022/03/15 09:31:00;;;;;;;;;;;11.80;87.90;;;;;;5084420;28;19908;-79
2022/03/15 09:33:25;;;;;;;;;;;12.00;88.40;;;;;;5083832;28;19914;-79
2022/03/15 09:35:51;;;;;;;;;;;12.10;88.80;;;;;;5084019;28;19983;-79
2022/03/15 09:38:19;;;;;;;;;;;12.20;88.80;;;;;;5066191;28;19931;-79
2022/03/15 09:40:47;;;;;;;;;;;12.30;88.80;;;;;;5083940;28;19909;-79
2022/03/15 09:43:12;;;;;;;;;;;12.40;88.80;;;;;;5070573;28;19909;-79
2022/03/15 09:45:38;;;;;;;;;;;12.50;88.80;;;;;;5065954;28;19916;-79
2022/03/15 09:48:08;;;;;;;;;;;12.50;88.80;;;;;;5083632;28;20007;-79
2022/03/15 09:50:34;;;;;;;;;;;12.70;88.80;;;;;;5084012;28;19908;-78
2022/03/15 09:53:00;;;;;;;;;;;12.90;89.10;;;;;;5084039;28;19915;-78
2022/03/15 09:55:26;;;;;;;;;;;13.10;88.90;;;;;;5083908;28;19912;-78
2022/03/15 09:57:52;;;;;;;;;;;13.20;88.50;;;;;;5084032;28;20302;-78
2022/03/15 10:00:18;;;;;;;;;;;13.30;87.80;;;;;;5083935;28;20363;-78
2022/03/15 10:02:44;;;;;;;;;;;13.40;87.30;;;;;;5083719;28;19931;-79
2022/03/15 10:05:10;;;;;;;;;;;13.40;86.80;;;;;;5065773;28;19908;-79
2022/03/15 10:07:36;;;;;;;;;;;13.40;86.50;;;;;;5083906;28;20359;-79
2022/03/15 10:10:06;;;;;;;;;;;13.50;86.20;;;;;;5083693;28;19989;-79
2022/03/15 10:12:33;;;;;;;;;;;13.40;85.80;;;;;;5083708;28;19909;-79
2022/03/15 10:15:10;;;;;;;;;;;13.40;85.50;;;;;;5083671;28;20291;-79
2022/03/15 10:17:42;;;;;;;;;;;13.40;85.70;;;;;;5083645;28;19997;-79
2022/03/15 10:20:08;;;;;;;;;;;13.40;85.50;;;;;;5083647;28;19908;-79
2022/03/15 10:22:34;;;;;;;;;;;13.50;85.80;;;;;;5083723;28;20363;-79
2022/03/15 10:25:01;;;;;;;;;;;13.50;85.40;;;;;;5083522;28;19912;-79
2022/03/15 10:27:28;;;;;;;;;;;13.40;85.00;;;;;;5081332;28;20398;-79
2022/03/15 10:29:53;;;;;;;;;;;13.50;85.00;;;;;;5080370;28;20441;-79
2022/03/15 10:32:19;;;;;;;;;;;13.50;85.10;;;;;;5080086;28;19908;-79
2022/03/15 10:34:45;;;;;;;;;;;13.60;85.00;;;;;;5062230;28;19947;-79
2022/03/15 10:37:11;;;;;;;;;;;13.60;84.60;;;;;;5062187;28;20339;-79
2022/03/15 10:39:37;;;;;;;;;;;13.50;84.40;;;;;;5079920;28;19915;-79
2022/03/15 10:42:04;;;;;;;;;;;13.50;84.40;;;;;;5069869;28;19909;-79
2022/03/15 10:44:34;;;;;;;;;;;13.50;84.40;;;;;;5077226;28;19908;-79
2022/03/15 10:47:02;;;;;;;;;;;13.50;84.30;;;;;;5079780;28;20284;-79
2022/03/15 10:49:29;;;;;;;;;;;13.50;84.00;;;;;;5080049;28;19958;-79
2022/03/15 10:51:54;;;;;;;;;;;13.50;84.10;;;;;;5080184;28;19958;-79
2022/03/15 10:54:22;;;;;;;;;;;13.50;84.00;;;;;;5079915;28;19912;-79
2022/03/15 10:56:56;;;;;;;;;;;13.50;84.00;;;;;;5080129;28;19962;-79
2022/03/15 10:59:22;;;;;;;;;;;13.50;83.90;;;;;;5080007;28;19908;-79
2022/03/15 11:01:48;;;;;;;;;;;13.60;83.60;;;;;;5079735;28;19909;-79
2022/03/15 11:04:14;;;;;;;;;;;13.50;83.70;;;;;;5079673;28;19912;-79
2022/03/15 11:06:50;;;;;;;;;;;13.60;83.70;;;;;;5079847;28;20381;-79
2022/03/15 11:09:19;;;;;;;;;;;13.60;83.40;;;;;;5079761;28;19908;-79
2022/03/15 11:11:52;;;;;;;;;;;13.70;83.90;;;;;;5061492;28;19916;-79
2022/03/15 11:14:28;;;;;;;;;;;13.70;83.50;;;;;;5079594;28;20394;-79
2022/03/15 11:16:55;;;;;;;;;;;13.70;83.40;;;;;;5079292;28;19934;-79
2022/03/15 11:19:21;;;;;;;;;;;13.80;83.10;;;;;;5079662;28;19956;-79
2022/03/15 11:21:47;;;;;;;;;;;13.80;83.20;;;;;;5079440;28;19916;-79
2022/03/15 11:24:16;;;;;;;;;;;13.90;83.30;;;;;;5079346;28;19995;-79
2022/03/15 11:26:44;;;;;;;;;;;14.00;83.60;;;;;;5079280;28;19940;-79
2022/03/15 11:29:11;;;;;;;;;;;14.10;83.50;;;;;;5061399;28;19940;-79
2022/03/15 11:31:38;;;;;;;;;;;14.10;83.30;;;;;;5079553;28;19909;-79
2022/03/15 11:34:04;;;;;;;;;;;14.20;83.00;;;;;;5078917;28;19916;-79
2022/03/15 11:36:31;;;;;;;;;;;14.30;83.50;;;;;;5079321;28;19913;-79
2022/03/15 11:38:58;;;;;;;;;;;14.50;83.90;;;;;;5078453;28;19908;-79
2022/03/15 11:41:24;;;;;;;;;;;14.80;83.90;;;;;;5074001;28;19909;-79
2022/03/15 11:44:00;;;;;;;;;;;15.00;83.30;;;;;;5070824;28;20433;-79
2022/03/15 11:46:29;;;;;;;;;;;15.20;82.10;;;;;;5060847;28;19920;-79
2022/03/15 11:49:00;;;;;;;;;;;15.30;81.80;;;;;;5078670;28;20410;-79
2022/03/15 11:51:38;;;;;;;;;;;15.40;81.50;;;;;;5079072;28;19916;-79
2022/03/15 11:54:06;;;;;;;;;;;15.40;81.20;;;;;;5078561;28;20386;-79
2022/03/15 11:56:35;;;;;;;;;;;15.50;81.10;;;;;;5078937;28;20286;-79
2022/03/15 11:59:00;;;;;;;;;;;15.60;81.20;;;;;;5078774;28;19913;-79
2022/03/15 12:01:28;;;;;;;;;;;15.70;81.00;;;;;;5078803;28;19916;-79
2022/03/15 12:03:57;;;;;;;;;;;15.80;80.90;;;;;;5078214;28;20363;-79
2022/03/15 12:06:27;;;;;;;;;;;15.90;81.00;;;;;;5060739;28;20295;-79
2022/03/15 12:08:57;;;;;;;;;;;16.00;81.20;;;;;;5078367;28;19909;-79
2022/03/15 12:11:32;;;;;;;;;;;16.20;81.80;;;;;;5078828;28;20375;-79
2022/03/15 12:14:08;;;;;;;;;;;16.30;81.00;;;;;;5077830;28;19914;-79
2022/03/15 12:16:35;;;;;;;;;;;16.50;81.10;;;;;;5078345;28;19913;-79
2022/03/15 12:19:06;;;;;;;;;;;16.80;81.00;;;;;;5078288;28;19908;-80
2022/03/15 12:21:32;;;;;;;;;;;16.90;79.60;;;;;;5078375;28;19912;-79
2022/03/15 12:23:58;;;;;;;;;;;17.10;79.30;;;;;;5078177;28;19948;-79
2022/03/15 12:26:28;;;;;;;;;;;17.20;79.10;;;;;;5078272;28;19909;-79
2022/03/15 12:28:55;;;;;;;;;;;17.30;78.00;;;;;;5078290;28;19916;-79
2022/03/15 12:31:31;;;;;;;;;;;17.50;78.90;;;;;;5078145;28;19908;-79
2022/03/15 12:34:08;;;;;;;;;;;17.70;79.30;;;;;;5077825;28;19995;-79
2022/03/15 12:36:38;;;;;;;;;;;18.00;77.80;;;;;;5069078;28;19912;-79
2022/03/15 12:39:08;;;;;;;;;;;18.10;77.90;;;;;;5077946;28;19909;-79
2022/03/15 12:41:34;;;;;;;;;;;18.20;77.60;;;;;;5071616;28;19909;-79
2022/03/15 12:43:59;;;;;;;;;;;18.40;78.50;;;;;;5071355;28;19912;-79
2022/03/15 12:46:30;;;;;;;;;;;18.70;78.60;;;;;;5077813;28;20388;-79
2022/03/15 12:49:04;;;;;;;;;;;19.00;77.60;;;;;;5077588;28;19913;-79
2022/03/15 12:51:51;;;;;;;;;;;19.10;76.10;;;;;;5077571;28;20283;-79
2022/03/15 12:54:17;;;;;;;;;;;19.30;75.20;;;;;;5059743;28;19916;-79
2022/03/15 12:56:47;;;;;;;;;;;19.40;74.70;;;;;;5077834;28;20268;-79
2022/03/15 12:59:21;;;;;;;;;;;19.50;73.60;;;;;;5059739;28;19913;-79
2022/03/15 13:01:47;;;;;;;;;;;19.50;72.60;;;;;;5059569;28;19915;-79
2022/03/15 13:04:14;;;;;;;;;;;19.50;72.70;;;;;;5077596;28;19908;-79
2022/03/15 13:06:44;;;;;;;;;;;19.60;72.80;;;;;;5077724;28;19908;-79
2022/03/15 13:09:10;;;;;;;;;;;19.60;72.80;;;;;;5077745;28;20388;-79
2022/03/15 13:11:48;;;;;;;;;;;19.70;72.30;;;;;;5077797;28;20003;-79
2022/03/15 13:14:13;;;;;;;;;;;19.80;70.90;;;;;;5074504;28;19909;-79
2022/03/15 13:16:45;;;;;;;;;;;19.60;70.40;;;;;;5077472;28;19919;-79
2022/03/15 13:19:12;;;;;;;;;;;19.50;70.50;;;;;;5059575;28;19908;-79
2022/03/15 13:21:39;;;;;;;;;;;19.30;70.50;;;;;;5077574;28;19920;-79
2022/03/15 13:24:11;;;;;;;;;;;19.10;70.20;;;;;;5077640;28;19908;-79
2022/03/15 13:26:40;;;;;;;;;;;18.90;70.60;;;;;;5077413;28;19908;-79
2022/03/15 13:29:07;;;;;;;;;;;18.70;70.80;;;;;;5077671;28;19995;-79
2022/03/15 13:31:35;;;;;;;;;;;18.60;71.10;;;;;;5077221;28;20426;-79
2022/03/15 13:34:01;;;;;;;;;;;18.40;71.50;;;;;;5059401;28;19913;-79
2022/03/15 13:36:31;;;;;;;;;;;18.30;71.90;;;;;;5077246;28;20007;-79
2022/03/15 13:39:07;;;;;;;;;;;18.30;72.50;;;;;;5077391;28;19912;-79
2022/03/15 13:41:40;;;;;;;;;;;18.30;72.20;;;;;;5072745;28;19909;-79
2022/03/15 13:44:12;;;;;;;;;;;18.30;72.60;;;;;;5071429;28;20323;-78
2022/03/15 13:46:39;;;;;;;;;;;18.20;72.30;;;;;;5077348;28;19920;-78
2022/03/15 13:49:05;;;;;;;;;;;18.30;72.50;;;;;;5077169;28;19958;-78
2022/03/15 13:51:35;;;;;;;;;;;18.20;72.60;;;;;;5077650;28;19908;-78
2022/03/15 13:54:07;;;;;;;;;;;18.20;72.40;;;;;;5077114;28;20018;-79
2022/03/15 13:56:39;;;;;;;;;;;18.10;72.30;;;;;;5077369;28;20011;-79
2022/03/15 13:59:06;;;;;;;;;;;18.10;72.10;;;;;;5059172;28;19916;-78
2022/03/15 14:01:42;;;;;;;;;;;18.00;72.20;;;;;;5078442;28;19908;-79
2022/03/15 14:04:09;;;;;;;;;;;17.90;72.00;;;;;;5080669;28;19957;-78
2022/03/15 14:06:39;;;;;;;;;;;17.80;73.00;;;;;;5080867;28;19908;-79
2022/03/15 14:09:05;;;;;;;;;;;17.80;72.60;;;;;;5080900;28;20359;-79
2022/03/15 14:11:40;;;;;;;;;;;17.70;72.70;;;;;;5080805;28;19930;-79
2022/03/15 14:14:08;;;;;;;;;;;17.60;73.00;;;;;;5076573;28;19909;-79
2022/03/15 14:16:37;;;;;;;;;;;17.60;73.20;;;;;;5080465;28;19913;-79
2022/03/15 14:19:04;;;;;;;;;;;17.60;73.30;;;;;;5080672;28;20381;-79
2022/03/15 14:21:30;;;;;;;;;;;17.50;73.60;;;;;;5080605;28;19909;-79
2022/03/15 14:23:57;;;;;;;;;;;17.50;74.00;;;;;;5080503;28;20374;-79